createdAt,value
2018-04-25T00:01:23.145Z,50.60
2018-04-25T00:03:52.179Z,50.60
2018-04-25T00:06:20.529Z,50.60
2018-04-25T00:08:49.194Z,50.60
2018-04-25T00:11:17.638Z,50.50
2018-04-25T00:13:45.955Z,50.60
2018-04-25T00:16:14.209Z,50.70
2018-04-25T00:18:42.479Z,50.60
2018-04-25T00:21:10.755Z,50.40
2018-04-25T00:23:39.044Z,50.30
2018-04-25T00:26:07.312Z,50.30
2018-04-25T00:28:35.627Z,50.30
2018-04-25T00:31:04.973Z,50.30
2018-04-25T00:33:33.382Z,50.30
2018-04-25T00:36:01.747Z,50.30
2018-04-25T00:38:30.036Z,50.20
2018-04-25T00:40:58.293Z,50.30
2018-04-25T00:43:26.586Z,50.30
2018-04-25T00:45:55.186Z,50.20
2018-04-25T00:48:23.645Z,50.00
2018-04-25T00:50:51.918Z,50.20
2018-04-25T00:53:20.207Z,50.30
2018-04-25T00:55:48.502Z,50.10
2018-04-25T00:58:16.776Z,50.10
2018-04-25T01:00:45.263Z,50.60
2018-04-25T01:03:13.581Z,50.20
2018-04-25T01:05:41.913Z,50.10
2018-04-25T01:08:10.660Z,50.30
2018-04-25T01:10:39.043Z,50.20
2018-04-25T01:13:07.454Z,50.20
2018-04-25T01:15:35.733Z,50.30
2018-04-25T01:18:05.126Z,50.30
2018-04-25T01:20:33.428Z,50.20
2018-04-25T01:23:01.870Z,50.60
2018-04-25T01:25:30.952Z,50.50
2018-04-25T01:28:08.844Z,50.10
2018-04-25T01:33:40.979Z,50.10
2018-04-25T01:36:10.073Z,50.10
2018-04-25T01:38:38.343Z,50.20
2018-04-25T01:41:09.451Z,50.10
2018-04-25T01:43:37.758Z,50.40
2018-04-25T01:46:07.937Z,50.30
2018-04-25T01:48:37.852Z,51.00
2018-04-25T01:51:17.959Z,50.50
2018-04-25T01:54:03.955Z,50.40
2018-04-25T01:56:49.988Z,50.10
2018-04-25T01:59:36.203Z,50.40
2018-04-25T02:02:10.052Z,50.10
2018-04-25T02:04:38.096Z,50.30
2018-04-25T02:07:06.362Z,50.40
2018-04-25T02:09:34.667Z,50.20
2018-04-25T02:12:03.281Z,50.20
2018-04-25T02:14:32.330Z,50.20
2018-04-25T02:17:00.630Z,50.20
2018-04-25T02:19:28.906Z,50.20
2018-04-25T02:21:57.165Z,50.10
2018-04-25T02:24:26.251Z,50.00
2018-04-25T02:26:54.519Z,50.00
2018-04-25T02:29:22.902Z,50.10
2018-04-25T02:31:51.277Z,50.10
2018-04-25T02:34:19.631Z,50.10
2018-04-25T02:36:48.631Z,50.00
2018-04-25T02:39:17.032Z,50.00
2018-04-25T02:41:45.315Z,50.00
2018-04-25T02:44:13.597Z,50.00
2018-04-25T02:46:41.846Z,49.90
2018-04-25T02:49:10.247Z,49.90
2018-04-25T02:51:38.522Z,50.00
2018-04-25T02:54:07.000Z,50.00
2018-04-25T02:56:35.360Z,49.80
2018-04-25T02:59:03.639Z,50.00
2018-04-25T03:01:31.929Z,49.90
2018-04-25T03:04:00.228Z,50.00
2018-04-25T03:06:28.497Z,49.80
2018-04-25T03:08:56.771Z,49.80
2018-04-25T03:11:25.041Z,50.00
2018-04-25T03:13:53.462Z,49.70
2018-04-25T03:16:21.739Z,49.80
2018-04-25T03:18:50.189Z,49.60
2018-04-25T03:21:18.553Z,49.50
2018-04-25T03:23:46.818Z,49.60
2018-04-25T03:26:15.077Z,49.50
2018-04-25T03:28:43.345Z,49.50
2018-04-25T03:31:12.407Z,49.70
2018-04-25T03:33:40.702Z,49.70
2018-04-25T03:36:09.134Z,49.60
2018-04-25T03:38:37.510Z,49.50
2018-04-25T03:41:05.907Z,49.50
2018-04-25T03:43:34.269Z,49.50
2018-04-25T03:46:02.530Z,49.60
2018-04-25T03:48:30.910Z,49.40
2018-04-25T03:50:59.411Z,49.40
2018-04-25T03:53:27.815Z,49.30
2018-04-25T03:55:56.848Z,49.20
2018-04-25T03:58:25.118Z,49.20
2018-04-25T04:00:54.141Z,49.20
2018-04-25T04:03:22.476Z,49.20
2018-04-25T04:05:50.917Z,49.20
2018-04-25T04:08:19.242Z,49.10
2018-04-25T04:10:48.272Z,49.00
2018-04-25T04:13:16.539Z,49.00
2018-04-25T04:15:44.907Z,49.00
2018-04-25T04:18:13.409Z,48.90
2018-04-25T04:20:41.796Z,49.00
2018-04-25T04:23:10.125Z,48.90
2018-04-25T04:25:38.382Z,48.80
2018-04-25T04:28:06.684Z,48.90
2018-04-25T04:30:35.027Z,48.80
2018-04-25T04:33:03.286Z,49.40
2018-04-25T04:35:31.784Z,48.70
2018-04-25T04:38:00.042Z,48.60
2018-04-25T04:40:28.478Z,48.70
2018-04-25T04:42:56.918Z,48.60
2018-04-25T04:45:25.226Z,48.60
2018-04-25T04:47:53.557Z,48.50
2018-04-25T04:50:21.798Z,48.40
2018-04-25T04:52:50.306Z,48.50
2018-04-25T04:55:18.785Z,48.40
2018-04-25T04:57:47.190Z,48.50
2018-04-25T05:00:15.800Z,48.60
2018-04-25T05:02:44.178Z,48.50
2018-04-25T05:05:12.614Z,48.40
2018-04-25T05:07:41.018Z,48.40
2018-04-25T05:10:09.278Z,48.50
2018-04-25T05:12:37.556Z,48.40
2018-04-25T05:15:05.811Z,48.30
2018-04-25T05:17:34.099Z,48.40
2018-04-25T05:20:03.463Z,48.40
2018-04-25T05:22:31.718Z,48.40
2018-04-25T05:24:59.999Z,48.30
2018-04-25T05:27:28.269Z,49.20
2018-04-25T05:29:58.801Z,49.50
2018-04-25T05:32:28.307Z,49.90
2018-04-25T05:34:56.562Z,50.00
2018-04-25T05:37:24.971Z,49.70
2018-04-25T05:39:53.265Z,49.40
2018-04-25T05:42:26.544Z,52.10
2018-04-25T05:44:55.194Z,52.00
2018-04-25T05:47:23.671Z,51.90
2018-04-25T05:49:52.050Z,51.10
2018-04-25T05:52:20.318Z,51.80
2018-04-25T05:54:48.595Z,51.80
2018-04-25T05:57:17.134Z,52.60
2018-04-25T05:59:46.172Z,53.00
2018-04-25T06:02:14.866Z,53.00
2018-04-25T06:04:43.216Z,53.10
2018-04-25T06:07:11.533Z,52.80
2018-04-25T06:09:39.793Z,53.40
2018-04-25T06:12:08.327Z,53.30
2018-04-25T06:14:36.792Z,53.60
2018-04-25T06:17:05.137Z,53.20
2018-04-25T06:19:33.770Z,52.90
2018-04-25T06:22:02.819Z,52.80
2018-04-25T06:24:31.097Z,52.90
2018-04-25T06:26:59.398Z,53.40
2018-04-25T06:29:27.679Z,52.90
2018-04-25T06:31:55.985Z,51.50
2018-04-25T06:34:25.032Z,52.70
2018-04-25T06:36:53.433Z,52.70
2018-04-25T06:39:21.895Z,52.90
2018-04-25T06:41:50.102Z,51.80
2018-04-25T06:44:18.379Z,52.00
2018-04-25T06:46:46.658Z,52.70
2018-04-25T06:49:14.928Z,52.00
2018-04-25T06:51:43.382Z,51.40
2018-04-25T06:54:11.646Z,51.60
2018-04-25T06:56:40.136Z,51.10
2018-04-25T06:59:08.366Z,52.40
2018-04-25T07:01:36.844Z,51.90
2018-04-25T07:04:05.569Z,52.80
2018-04-25T07:06:33.966Z,52.20
2018-04-25T07:09:02.232Z,52.10
2018-04-25T07:11:30.955Z,51.90
2018-04-25T07:13:59.371Z,51.80
2018-04-25T07:16:27.795Z,51.70
2018-04-25T07:18:56.094Z,51.80
2018-04-25T07:21:25.135Z,52.50
2018-04-25T07:23:53.431Z,51.90
2018-04-25T07:26:21.681Z,52.00
2018-04-25T07:28:50.010Z,52.20
2018-04-25T07:31:18.303Z,52.80
2018-04-25T07:33:47.337Z,52.20
2018-04-25T07:36:15.981Z,52.10
2018-04-25T07:38:44.438Z,52.30
2018-04-25T07:41:12.714Z,52.20
2018-04-25T07:43:41.437Z,52.30
2018-04-25T07:46:10.759Z,52.30
2018-04-25T07:48:39.473Z,52.20
2018-04-25T07:51:07.873Z,52.20
2018-04-25T07:53:36.162Z,52.20
2018-04-25T07:56:06.590Z,52.30
2018-04-25T07:58:34.960Z,52.30
2018-04-25T08:01:03.950Z,52.30
2018-04-25T08:03:32.458Z,52.20
2018-04-25T08:06:01.557Z,52.40
2018-04-25T08:08:29.778Z,52.40
2018-04-25T08:10:58.262Z,52.30
2018-04-25T08:13:38.558Z,52.20
2018-04-25T08:16:19.390Z,52.80
2018-04-25T08:19:10.290Z,52.70
2018-04-25T08:21:41.375Z,52.60
2018-04-25T08:24:09.659Z,52.70
2018-04-25T08:26:38.014Z,52.70
2018-04-25T08:29:06.354Z,52.90
2018-04-25T08:31:34.631Z,53.20
2018-04-25T08:34:03.067Z,53.70
2018-04-25T08:36:31.550Z,53.00
2018-04-25T08:38:59.882Z,53.00
2018-04-25T08:41:28.297Z,53.00
2018-04-25T08:43:56.660Z,52.80
2018-04-25T08:46:24.925Z,53.10
2018-04-25T08:48:53.198Z,52.80
2018-04-25T08:51:21.478Z,52.50
2018-04-25T08:53:49.877Z,52.40
2018-04-25T08:56:18.175Z,52.60
2018-04-25T08:58:46.860Z,52.50
2018-04-25T09:01:15.247Z,52.50
2018-04-25T09:03:43.581Z,52.70
2018-04-25T09:06:11.868Z,52.50
2018-04-25T09:08:40.454Z,51.00
2018-04-25T09:11:08.734Z,50.70
2018-04-25T09:13:37.140Z,50.50
2018-04-25T09:16:05.591Z,50.60
2018-04-25T09:18:33.846Z,50.80
2018-04-25T09:21:02.144Z,51.80
2018-04-25T09:23:30.666Z,52.20
2018-04-25T09:25:59.127Z,52.70
2018-04-25T09:28:27.475Z,52.30
2018-04-25T09:30:56.116Z,52.30
2018-04-25T09:33:24.592Z,52.10
2018-04-25T09:35:53.223Z,52.10
2018-04-25T09:38:21.491Z,51.90
2018-04-25T09:40:50.009Z,52.10
2018-04-25T09:43:18.310Z,52.20
2018-04-25T09:45:46.749Z,52.40
2018-04-25T09:48:15.014Z,51.90
2018-04-25T09:50:43.277Z,51.90
2018-04-25T09:53:11.550Z,52.20
2018-04-25T09:55:39.985Z,51.50
2018-04-25T09:58:09.019Z,52.80
2018-04-25T10:00:42.912Z,52.80
2018-04-25T10:03:17.036Z,51.80
2018-04-25T10:05:45.705Z,51.90
2018-04-25T10:08:14.146Z,52.10
2018-04-25T10:10:42.426Z,52.70
2018-04-25T10:13:10.897Z,51.70
2018-04-25T10:15:39.288Z,52.10
2018-04-25T10:18:07.552Z,53.60
2018-04-25T10:20:35.820Z,52.70
2018-04-25T10:23:04.100Z,52.70
2018-04-25T10:25:32.516Z,53.10
2018-04-25T10:28:02.336Z,52.70
2018-04-25T10:30:31.384Z,52.90
2018-04-25T10:32:59.723Z,52.80
2018-04-25T10:35:28.151Z,53.10
2018-04-25T10:37:56.417Z,53.10
2018-04-25T10:40:25.251Z,53.00
2018-04-25T10:42:54.546Z,52.90
2018-04-25T10:45:23.753Z,52.70
2018-04-25T10:47:52.029Z,52.70
2018-04-25T10:50:20.574Z,52.80
2018-04-25T10:52:48.957Z,52.60
2018-04-25T10:55:17.300Z,52.70
2018-04-25T10:57:45.731Z,52.60
2018-04-25T11:00:14.026Z,52.50
2018-04-25T11:02:42.289Z,52.60
2018-04-25T11:05:10.553Z,52.50
2018-04-25T11:07:38.821Z,52.50
2018-04-25T11:10:07.595Z,52.70
2018-04-25T11:12:35.922Z,52.70
2018-04-25T11:15:04.986Z,52.60
2018-04-25T11:17:33.493Z,52.40
2018-04-25T11:20:01.738Z,52.30
2018-04-25T11:22:30.011Z,52.40
2018-04-25T11:24:58.527Z,52.40
2018-04-25T11:27:26.794Z,52.40
2018-04-25T11:29:55.277Z,52.30
2018-04-25T11:32:23.538Z,52.20
2018-04-25T11:34:51.958Z,52.20
2018-04-25T11:37:21.032Z,52.30
2018-04-25T11:39:49.326Z,52.20
2018-04-25T11:42:18.352Z,52.20
2018-04-25T11:44:46.776Z,52.10
2018-04-25T11:47:15.147Z,52.00
2018-04-25T11:49:44.258Z,52.00
2018-04-25T11:52:13.948Z,52.00
2018-04-25T11:54:42.218Z,51.80
2018-04-25T11:57:10.797Z,51.70
2018-04-25T11:59:39.299Z,51.80
2018-04-25T12:02:07.486Z,51.80
2018-04-25T12:04:35.761Z,51.80
2018-04-25T12:07:04.078Z,51.80
2018-04-25T12:09:32.397Z,51.80
2018-04-25T12:12:00.717Z,51.70
2018-04-25T12:14:30.058Z,51.80
2018-04-25T12:16:58.313Z,51.80
2018-04-25T12:19:26.605Z,51.80
2018-04-25T12:21:54.888Z,51.90
2018-04-25T12:24:23.383Z,51.80
2018-04-25T12:26:51.660Z,51.90
2018-04-25T12:29:19.931Z,51.90
2018-04-25T12:31:48.192Z,51.90
2018-04-25T12:34:16.450Z,52.00
2018-04-25T12:36:46.303Z,51.30
2018-04-25T12:39:14.713Z,51.40
2018-04-25T12:41:43.337Z,51.50
2018-04-25T12:44:11.514Z,51.10
2018-04-25T12:46:39.926Z,52.10
2018-04-25T12:49:08.235Z,51.50
2018-04-25T12:51:36.501Z,51.50
2018-04-25T12:54:04.799Z,51.70
2018-04-25T12:56:33.109Z,51.60
2018-04-25T12:59:01.494Z,51.50
2018-04-25T13:01:29.996Z,51.60
2018-04-25T13:03:58.267Z,51.20
2018-04-25T13:06:26.526Z,50.90
2018-04-25T13:08:55.728Z,51.10
2018-04-25T13:11:23.998Z,51.50
2018-04-25T13:13:52.329Z,51.60
2018-04-25T13:16:20.764Z,51.60
2018-04-25T13:18:49.133Z,51.20
2018-04-25T13:21:17.515Z,52.00
2018-04-25T13:23:45.736Z,51.80
2018-04-25T13:26:14.230Z,52.20
2018-04-25T13:28:43.359Z,52.10
2018-04-25T13:31:11.684Z,52.00
2018-04-25T13:33:39.941Z,52.00
2018-04-25T13:36:08.232Z,51.80
2018-04-25T13:38:36.797Z,51.80
2018-04-25T13:41:05.075Z,51.50
2018-04-25T13:43:34.154Z,49.90
2018-04-25T13:46:02.491Z,50.20
2018-04-25T13:48:30.939Z,50.20
2018-04-25T13:50:59.211Z,50.10
2018-04-25T13:53:27.475Z,49.90
2018-04-25T13:55:55.755Z,49.90
2018-04-25T13:58:24.398Z,49.90
2018-04-25T14:00:52.854Z,49.80
2018-04-25T14:03:21.193Z,49.80
2018-04-25T14:05:49.835Z,49.80
2018-04-25T14:08:18.295Z,49.80
2018-04-25T14:10:46.665Z,49.80
2018-04-25T14:13:14.931Z,49.80
2018-04-25T14:15:43.373Z,49.80
2018-04-25T14:18:12.410Z,50.80
2018-04-25T14:20:40.667Z,51.30
2018-04-25T14:23:09.094Z,51.10
2018-04-25T14:25:37.786Z,51.50
2018-04-25T14:28:06.487Z,51.40
2018-04-25T14:30:35.532Z,51.40
2018-04-25T14:33:03.932Z,51.40
2018-04-25T14:35:32.178Z,51.30
2018-04-25T14:38:00.659Z,51.60
2018-04-25T14:40:29.025Z,51.70
2018-04-25T14:42:57.343Z,51.70
2018-04-25T14:45:25.797Z,51.80
2018-04-25T14:47:54.185Z,52.00
2018-04-25T14:50:22.516Z,52.00
2018-04-25T14:52:51.546Z,52.10
2018-04-25T14:55:19.937Z,52.10
2018-04-25T14:57:48.197Z,51.80
2018-04-25T15:00:16.682Z,52.20
2018-04-25T15:02:45.063Z,52.00
2018-04-25T15:05:13.445Z,52.20
2018-04-25T15:07:41.718Z,52.30
2018-04-25T15:10:09.982Z,51.70
2018-04-25T15:12:38.251Z,52.40
2018-04-25T15:31:03.827Z,52.50
2018-04-25T15:33:32.264Z,52.00
2018-04-25T15:36:00.637Z,52.00
2018-04-25T15:38:29.073Z,52.30
2018-04-25T15:40:57.347Z,52.40
2018-04-25T15:43:25.801Z,52.20
2018-04-25T15:45:54.206Z,52.00
2018-04-25T15:48:22.478Z,51.20
2018-04-25T15:50:50.758Z,51.20
2018-04-25T15:53:19.285Z,51.60
2018-04-25T15:55:47.943Z,51.00
2018-04-25T15:58:17.019Z,50.80
2018-04-25T16:00:45.279Z,51.40
2018-04-25T16:03:13.743Z,50.80
2018-04-25T16:05:42.117Z,50.60
2018-04-25T16:08:10.514Z,50.80
2018-04-25T16:10:38.787Z,51.30
2018-04-25T16:13:07.091Z,51.10
2018-04-25T16:15:35.342Z,51.10
2018-04-25T16:18:03.727Z,51.00
2018-04-25T16:20:32.101Z,51.00
2018-04-25T16:23:00.414Z,51.10
2018-04-25T16:25:28.854Z,51.00
2018-04-25T16:27:57.158Z,51.70
2018-04-25T16:30:26.361Z,50.60
2018-04-25T16:32:54.919Z,50.10
2018-04-25T16:35:23.291Z,50.10
2018-04-25T16:37:52.578Z,50.30
2018-04-25T16:40:21.907Z,50.40
2018-04-25T16:42:50.201Z,50.60
2018-04-25T16:45:18.613Z,50.60
2018-04-25T16:47:47.070Z,50.80
2018-04-25T16:50:16.612Z,50.90
2018-04-25T16:52:44.993Z,50.90
2018-04-25T16:55:13.394Z,52.10
2018-04-25T16:57:42.119Z,52.10
2018-04-25T17:00:10.465Z,51.40
2018-04-25T17:02:38.731Z,51.80
2018-04-25T17:05:07.840Z,53.10
2018-04-25T17:07:38.357Z,53.10
2018-04-25T17:10:08.638Z,53.30
2018-04-25T17:12:36.935Z,51.40
2018-04-25T17:15:05.291Z,51.00
2018-04-25T17:17:34.335Z,52.40
2018-04-25T17:20:02.971Z,52.30
2018-04-25T17:22:31.418Z,53.00
2018-04-25T17:25:00.045Z,54.00
2018-04-25T17:27:29.073Z,53.80
2018-04-25T17:29:57.452Z,53.80
2018-04-25T17:32:25.877Z,53.70
2018-04-25T17:34:54.167Z,53.80
2018-04-25T17:37:23.189Z,52.90
2018-04-25T17:39:51.539Z,52.90
2018-04-25T17:42:20.596Z,53.40
2018-04-25T17:44:49.197Z,53.30
2018-04-25T17:47:17.838Z,53.50
2018-04-25T17:49:46.097Z,53.40
2018-04-25T17:52:14.658Z,53.20
2018-04-25T17:54:43.036Z,52.80
2018-04-25T17:57:11.499Z,53.20
2018-04-25T17:59:39.809Z,53.20
2018-04-25T18:02:08.263Z,53.20
2018-04-25T18:04:36.513Z,52.80
2018-04-25T18:07:04.782Z,52.60
2018-04-25T18:09:33.058Z,52.50
2018-04-25T18:12:01.475Z,52.40
2018-04-25T18:14:30.071Z,52.40
2018-04-25T18:16:58.570Z,52.30
2018-04-25T18:19:26.773Z,52.00
2018-04-25T18:21:55.205Z,52.10
2018-04-25T18:24:23.514Z,52.20
2018-04-25T18:26:51.769Z,52.20
2018-04-25T18:29:20.355Z,52.60
2018-04-25T18:31:49.414Z,53.00
2018-04-25T18:34:17.776Z,53.00
2018-04-25T18:36:46.166Z,52.80
2018-04-25T18:39:14.479Z,52.80
2018-04-25T18:41:42.840Z,52.80
2018-04-25T18:44:11.117Z,53.00
2018-04-25T18:46:39.387Z,52.90
2018-04-25T18:49:07.659Z,53.00
2018-04-25T18:51:35.958Z,53.20
2018-04-25T18:54:04.221Z,53.50
2018-04-25T18:56:32.575Z,53.30
2018-04-25T18:59:00.900Z,53.10
2018-04-25T19:01:29.958Z,53.00
2018-04-25T19:03:58.270Z,53.00
2018-04-25T19:06:27.307Z,53.10
2018-04-25T19:08:55.815Z,53.00
2018-04-25T19:11:24.518Z,53.00
2018-04-25T19:13:54.577Z,53.30
2018-04-25T19:16:22.990Z,53.10
2018-04-25T19:18:51.249Z,53.20
2018-04-25T19:21:19.761Z,53.30
2018-04-25T19:23:48.410Z,53.10
2018-04-25T19:26:17.104Z,53.10
2018-04-25T19:28:45.493Z,53.00
2018-04-25T19:31:15.192Z,53.00
2018-04-25T19:33:43.495Z,53.10
2018-04-25T19:36:11.881Z,53.10
2018-04-25T19:38:40.173Z,53.00
2018-04-25T19:41:08.643Z,53.00
2018-04-25T19:43:37.002Z,53.00
2018-04-25T19:46:05.405Z,53.20
2018-04-25T19:48:34.096Z,53.20
2018-04-25T19:51:02.341Z,53.20
2018-04-25T19:53:30.683Z,53.20
2018-04-25T19:55:59.190Z,53.30
2018-04-25T19:58:27.462Z,53.30
2018-04-25T20:00:55.906Z,53.30
2018-04-25T20:03:24.938Z,53.30
2018-04-25T20:05:53.193Z,53.30
2018-04-25T20:08:23.520Z,53.30
2018-04-25T20:10:52.152Z,53.30
2018-04-25T20:13:20.798Z,53.40
2018-04-25T20:15:49.065Z,53.40
2018-04-25T20:18:17.981Z,53.50
2018-04-25T20:20:46.258Z,53.40
2018-04-25T20:23:14.523Z,53.60
2018-04-25T20:25:42.774Z,53.60
2018-04-25T20:28:11.503Z,53.30
2018-04-25T20:30:39.776Z,53.30
2018-04-25T20:33:08.261Z,53.30
2018-04-25T20:35:36.674Z,53.20
2018-04-25T20:38:04.961Z,52.70
2018-04-25T20:40:33.422Z,52.70
2018-04-25T20:43:01.828Z,52.70
2018-04-25T20:45:30.163Z,52.60
2018-04-25T20:47:58.468Z,52.50
2018-04-25T20:50:26.862Z,52.40
2018-04-25T20:52:55.235Z,52.50
2018-04-25T20:55:23.519Z,52.30
2018-04-25T20:57:51.777Z,52.60
2018-04-25T21:00:20.055Z,53.10
2018-04-25T21:02:48.533Z,52.30
2018-04-25T21:05:16.822Z,52.20
2018-04-25T21:07:45.670Z,52.40
2018-04-25T21:10:14.867Z,52.20
2018-04-25T21:12:44.572Z,52.20
2018-04-25T21:15:13.151Z,52.40
2018-04-25T21:17:42.147Z,52.40
2018-04-25T21:20:10.426Z,52.40
2018-04-25T21:22:38.695Z,52.40
2018-04-25T21:25:06.998Z,52.40
2018-04-25T21:27:35.263Z,52.30
2018-04-25T21:30:03.585Z,52.20
2018-04-25T21:32:31.843Z,52.30
2018-04-25T21:35:00.107Z,52.30
2018-04-25T21:37:28.381Z,52.30
2018-04-25T21:39:56.890Z,52.40
2018-04-25T21:42:25.147Z,52.40
2018-04-25T21:44:53.713Z,53.00
2018-04-25T21:47:22.110Z,52.50
2018-04-25T21:49:50.357Z,52.50
2018-04-25T21:52:18.875Z,52.50
2018-04-25T21:54:47.153Z,52.40
2018-04-25T21:57:15.598Z,52.50
2018-04-25T21:59:44.114Z,52.60
2018-04-25T22:02:12.378Z,52.60
2018-04-25T22:04:40.858Z,52.20
2018-04-25T22:07:09.124Z,52.60
2018-04-25T22:09:37.505Z,52.60
2018-04-25T22:12:05.777Z,52.60
2018-04-25T22:14:34.266Z,52.50
2018-04-25T22:17:02.526Z,52.60
2018-04-25T22:19:31.048Z,52.50
2018-04-25T22:21:59.403Z,52.60
2018-04-25T22:24:27.670Z,52.70
2018-04-25T22:26:56.103Z,52.60
2018-04-25T22:29:24.540Z,52.70
2018-04-25T22:31:53.162Z,52.60
2018-04-25T22:34:21.617Z,52.70
2018-04-25T22:36:49.886Z,52.70
2018-04-25T22:39:18.163Z,52.70
2018-04-25T22:41:46.422Z,52.80
2018-04-25T22:44:14.828Z,52.80
2018-04-25T22:46:43.096Z,52.80
2018-04-25T22:49:11.879Z,52.80
2018-04-25T22:51:40.294Z,53.40
2018-04-25T22:54:08.596Z,52.80
2018-04-25T22:56:36.841Z,52.80
2018-04-25T22:59:05.339Z,52.80
2018-04-25T23:01:33.777Z,52.80
2018-04-25T23:04:02.146Z,52.80
2018-04-25T23:06:30.523Z,52.80
2018-04-25T23:08:58.794Z,52.80
2018-04-25T23:11:27.290Z,52.80
2018-04-25T23:13:55.553Z,52.80
2018-04-25T23:16:23.817Z,52.80
2018-04-25T23:18:52.117Z,52.80
2018-04-25T23:21:20.390Z,52.80
2018-04-25T23:23:49.522Z,52.90
2018-04-25T23:26:17.799Z,52.80
2018-04-25T23:28:46.053Z,52.80
2018-04-25T23:31:14.330Z,52.80
2018-04-25T23:33:42.719Z,52.70
2018-04-25T23:36:11.045Z,52.80
2018-04-25T23:38:39.415Z,52.80
2018-04-25T23:41:08.444Z,52.80
2018-04-25T23:43:36.794Z,52.80
2018-04-25T23:46:05.219Z,52.80
2018-04-25T23:48:33.602Z,52.80
2018-04-25T23:51:01.930Z,52.80
2018-04-25T23:53:30.345Z,53.40
2018-04-25T23:55:58.657Z,52.80
2018-04-25T23:58:26.921Z,52.80
